Terminal Aerodrome Forecast
Issued by NWS

Home | Current Version | Previous Version | Text Only | Print | Product List | Glossary Off
Versions: 1 2 3 4 5 6 7 8 9 10 11 12 13 14 15 16 17 18 19 20 21

443
FTUS43 KBIS 271737
TAFJMS
TAF
KJMS 271737Z 2718/2818 14007KT P6SM FEW300
     FM280000 11006KT P6SM FEW200
     FM280500 09004KT P6SM VCFG BKN015
     FM280700 07003KT 3SM BR OVC012
     FM281500 VRB03KT P6SM SCT040=

USA.gov is the U.S. government's official web portal to all federal, state and local government web resources and services.